Time;durP1;ratioP1;P1;durP2;ratioP2;P2;SDS_P1;SDS_P2;PMS_P1;PMS_P2;Temp;Humidity;BMP_temperature;BMP_pressure;BME280_temperature;BME280_humidity;BME280_pressure;Samples;Min_cycle;Max_cycle;Signal;HPM_P1;HPM_P2
2021/08/01 00:01:23;;;;;;;11.45;4.50;;;;;;;;;;5056382;28;20043;-73
2021/08/01 00:03:50;;;;;;;9.15;5.07;;;;;;;;;;5074442;28;20450;-73
2021/08/01 00:06:16;;;;;;;6.32;4.50;;;;;;;;;;5056275;28;20120;-72
2021/08/01 00:08:42;;;;;;;10.77;4.82;;;;;;;;;;5074219;28;20025;-72
2021/08/01 00:11:08;;;;;;;8.88;5.10;;;;;;;;;;5074239;28;20024;-72
2021/08/01 00:13:35;;;;;;;7.85;4.53;;;;;;;;;;5074015;28;20048;-71
2021/08/01 00:16:01;;;;;;;10.30;5.05;;;;;;;;;;5074169;28;20384;-73
2021/08/01 00:18:27;;;;;;;9.10;4.13;;;;;;;;;;5064435;28;20032;-72
2021/08/01 00:20:53;;;;;;;7.45;4.93;;;;;;;;;;5056166;28;20021;-72
2021/08/01 00:23:19;;;;;;;8.57;4.78;;;;;;;;;;5073859;28;20048;-72
2021/08/01 00:25:45;;;;;;;5.90;4.28;;;;;;;;;;5055822;28;20506;-73
2021/08/01 00:28:11;;;;;;;8.65;4.60;;;;;;;;;;5055819;28;20137;-72
2021/08/01 00:30:37;;;;;;;7.63;4.80;;;;;;;;;;5073673;28;20086;-73
2021/08/01 00:33:04;;;;;;;9.13;4.88;;;;;;;;;;5073550;28;20082;-73
2021/08/01 00:35:30;;;;;;;7.95;4.53;;;;;;;;;;5073493;28;20066;-73
2021/08/01 00:37:56;;;;;;;6.85;4.97;;;;;;;;;;5055642;28;20029;-73
2021/08/01 00:40:22;;;;;;;7.07;4.47;;;;;;;;;;5073391;28;20090;-73
2021/08/01 00:42:49;;;;;;;6.63;4.63;;;;;;;;;;5073411;28;20021;-73
2021/08/01 00:45:16;;;;;;;7.13;4.70;;;;;;;;;;5055355;28;20020;-73
2021/08/01 00:47:45;;;;;;;7.28;4.57;;;;;;;;;;5073004;28;20017;-73
2021/08/01 00:50:12;;;;;;;6.53;4.68;;;;;;;;;;5055440;28;20104;-72
2021/08/01 00:52:38;;;;;;;7.85;4.55;;;;;;;;;;5073059;28;20069;-73
2021/08/01 00:55:08;;;;;;;7.45;4.68;;;;;;;;;;5072783;28;20545;-73
2021/08/01 00:57:34;;;;;;;7.57;4.72;;;;;;;;;;5072959;28;20028;-73
2021/08/01 01:00:00;;;;;;;7.10;4.70;;;;;;;;;;5055123;28;20533;-73
2021/08/01 01:02:35;;;;;;;7.35;3.92;;;;;;;;;;5073003;28;20100;-73
2021/08/01 01:05:04;;;;;;;7.68;4.65;;;;;;;;;;5073005;28;20154;-72
2021/08/01 01:07:37;;;;;;;9.07;4.88;;;;;;;;;;5071757;28;20511;-73
2021/08/01 01:10:06;;;;;;;6.55;4.55;;;;;;;;;;5035046;28;20025;-73
2021/08/01 01:12:53;;;;;;;6.28;4.50;;;;;;;;;;5052688;28;20045;-72
2021/08/01 01:15:20;;;;;;;7.45;4.47;;;;;;;;;;5052539;28;20029;-73
2021/08/01 01:17:48;;;;;;;8.15;4.30;;;;;;;;;;5034769;28;20028;-72
2021/08/01 01:20:14;;;;;;;9.20;4.30;;;;;;;;;;5052649;28;20088;-72
2021/08/01 01:22:53;;;;;;;6.70;4.05;;;;;;;;;;5034893;28;20476;-71
2021/08/01 01:25:28;;;;;;;9.38;5.88;;;;;;;;;;5052715;28;20112;-72
2021/08/01 01:28:02;;;;;;;26.08;23.30;;;;;;;;;;5052450;28;20025;-71
2021/08/01 01:30:29;;;;;;;17.02;15.10;;;;;;;;;;5052576;28;20079;-71
2021/08/01 01:33:00;;;;;;;18.00;12.48;;;;;;;;;;5034586;28;20031;-71
2021/08/01 01:35:31;;;;;;;14.77;12.30;;;;;;;;;;5052629;28;20559;-72
2021/08/01 01:37:58;;;;;;;12.60;10.75;;;;;;;;;;5052702;28;20052;-72
2021/08/01 01:40:25;;;;;;;11.75;9.65;;;;;;;;;;5052631;28;20087;-72
2021/08/01 01:42:53;;;;;;;14.02;9.15;;;;;;;;;;5034451;28;20031;-72
2021/08/01 01:45:19;;;;;;;15.15;9.15;;;;;;;;;;5034551;28;20053;-73
2021/08/01 01:47:50;;;;;;;13.48;8.55;;;;;;;;;;5052323;28;20066;-73
2021/08/01 01:50:17;;;;;;;11.77;8.90;;;;;;;;;;5052463;28;20467;-73
2021/08/01 01:52:47;;;;;;;11.45;9.05;;;;;;;;;;5034575;28;20025;-72
2021/08/01 01:55:13;;;;;;;12.27;8.60;;;;;;;;;;5052151;28;20025;-73
2021/08/01 01:57:40;;;;;;;10.75;8.07;;;;;;;;;;5034513;28;20028;-73
2021/08/01 02:00:06;;;;;;;10.73;8.25;;;;;;;;;;5051907;28;20070;-72
2021/08/01 02:02:32;;;;;;;11.95;7.90;;;;;;;;;;5052384;28;20380;-72
2021/08/01 02:04:58;;;;;;;10.00;7.80;;;;;;;;;;5034266;28;20095;-72
2021/08/01 02:07:24;;;;;;;11.02;7.53;;;;;;;;;;5034421;28;20083;-72
2021/08/01 02:09:57;;;;;;;11.57;7.28;;;;;;;;;;5051862;28;20033;-72
2021/08/01 02:12:29;;;;;;;13.40;7.22;;;;;;;;;;5033764;28;20040;-72
2021/08/01 02:15:03;;;;;;;10.50;7.03;;;;;;;;;;5051787;28;20108;-72
2021/08/01 02:17:41;;;;;;;13.48;6.85;;;;;;;;;;5049070;28;20472;-70
2021/08/01 02:20:08;;;;;;;10.63;7.00;;;;;;;;;;5068591;28;20032;-71
2021/08/01 02:22:35;;;;;;;12.13;6.82;;;;;;;;;;5071763;28;20029;-71
2021/08/01 02:25:01;;;;;;;10.05;6.88;;;;;;;;;;5071618;28;20070;-71
2021/08/01 02:27:30;;;;;;;10.82;6.13;;;;;;;;;;5071638;28;20039;-72
2021/08/01 02:29:57;;;;;;;10.27;6.22;;;;;;;;;;5071732;28;20067;-72
2021/08/01 02:32:23;;;;;;;11.38;6.07;;;;;;;;;;5071925;28;20024;-71
2021/08/01 02:34:49;;;;;;;12.50;6.03;;;;;;;;;;5071936;28;20429;-71
2021/08/01 02:37:17;;;;;;;10.18;6.15;;;;;;;;;;5071881;28;20032;-71
2021/08/01 02:39:43;;;;;;;8.32;5.63;;;;;;;;;;5071678;28;20025;-72
2021/08/01 02:42:10;;;;;;;9.65;5.93;;;;;;;;;;5053885;28;20027;-71
2021/08/01 02:44:37;;;;;;;8.98;5.93;;;;;;;;;;5071860;28;20033;-72
2021/08/01 02:47:05;;;;;;;10.25;5.95;;;;;;;;;;5071952;28;20029;-72
2021/08/01 02:49:33;;;;;;;8.20;5.38;;;;;;;;;;5053539;28;20025;-72
2021/08/01 02:52:00;;;;;;;9.68;5.57;;;;;;;;;;5071698;28;20543;-73
2021/08/01 02:54:27;;;;;;;9.20;5.50;;;;;;;;;;5071647;28;20062;-72
2021/08/01 02:57:01;;;;;;;7.93;5.68;;;;;;;;;;5071579;28;20033;-71
2021/08/01 02:59:28;;;;;;;8.30;5.40;;;;;;;;;;5053242;28;20025;-72
2021/08/01 03:01:56;;;;;;;8.68;5.50;;;;;;;;;;5071384;28;20333;-72
2021/08/01 03:04:25;;;;;;;7.45;5.07;;;;;;;;;;5053212;28;20024;-73
2021/08/01 03:06:52;;;;;;;11.00;4.88;;;;;;;;;;5071290;28;20458;-73
2021/08/01 03:09:18;;;;;;;11.25;5.07;;;;;;;;;;5053293;28;20021;-73
2021/08/01 03:11:44;;;;;;;8.00;5.13;;;;;;;;;;5054634;28;20028;-73
2021/08/01 03:14:11;;;;;;;6.60;4.45;;;;;;;;;;5075122;28;20435;-72
2021/08/01 03:16:37;;;;;;;10.35;5.32;;;;;;;;;;5074860;28;20160;-73
2021/08/01 03:19:03;;;;;;;6.32;4.68;;;;;;;;;;5074713;28;20078;-72
2021/08/01 03:21:29;;;;;;;8.95;5.22;;;;;;;;;;5074669;28;20033;-73
2021/08/01 03:23:55;;;;;;;7.13;4.50;;;;;;;;;;5074899;28;20063;-73
2021/08/01 03:26:21;;;;;;;7.68;4.35;;;;;;;;;;5056779;28;20040;-73
2021/08/01 03:28:47;;;;;;;10.65;4.78;;;;;;;;;;5057019;28;20483;-74
2021/08/01 03:31:13;;;;;;;8.75;4.70;;;;;;;;;;5074859;28;20379;-73
2021/08/01 03:33:39;;;;;;;6.50;4.35;;;;;;;;;;5056977;28;20047;-73
2021/08/01 03:36:06;;;;;;;8.93;4.63;;;;;;;;;;5056715;28;20368;-74
2021/08/01 03:38:32;;;;;;;7.50;4.72;;;;;;;;;;5074602;28;20020;-71
2021/08/01 03:40:58;;;;;;;9.23;4.40;;;;;;;;;;5074662;28;20367;-71
2021/08/01 03:43:24;;;;;;;7.82;4.53;;;;;;;;;;5074747;28;20017;-71
2021/08/01 03:45:50;;;;;;;7.38;4.40;;;;;;;;;;5074690;28;20141;-71
2021/08/01 03:48:16;;;;;;;6.95;4.55;;;;;;;;;;5074818;28;20028;-71
2021/08/01 03:50:42;;;;;;;6.47;4.45;;;;;;;;;;5074823;28;20361;-71
2021/08/01 03:53:08;;;;;;;7.13;4.32;;;;;;;;;;5056522;28;20025;-70
2021/08/01 03:55:34;;;;;;;5.97;4.10;;;;;;;;;;5056564;28;20024;-70
2021/08/01 03:58:00;;;;;;;7.30;4.10;;;;;;;;;;5074614;28;20186;-71
2021/08/01 04:00:26;;;;;;;6.20;4.13;;;;;;;;;;5074444;28;20103;-72
2021/08/01 04:02:52;;;;;;;7.78;4.45;;;;;;;;;;5074328;28;20055;-72
2021/08/01 04:05:18;;;;;;;9.13;4.78;;;;;;;;;;5074222;28;20021;-72
2021/08/01 04:07:44;;;;;;;6.22;3.95;;;;;;;;;;5074346;28;20025;-71
2021/08/01 04:10:10;;;;;;;7.07;4.15;;;;;;;;;;5056519;28;20509;-70
2021/08/01 04:12:37;;;;;;;5.75;3.65;;;;;;;;;;5073998;28;20045;-71
2021/08/01 04:15:03;;;;;;;6.75;4.07;;;;;;;;;;5074559;28;20021;-72
2021/08/01 04:17:32;;;;;;;10.48;4.55;;;;;;;;;;5076262;28;20029;-72
2021/08/01 04:19:58;;;;;;;7.07;4.35;;;;;;;;;;5048031;28;20024;-72
2021/08/01 04:22:25;;;;;;;8.90;4.47;;;;;;;;;;5073610;28;20020;-72
2021/08/01 04:24:51;;;;;;;7.78;4.40;;;;;;;;;;5073590;28;20020;-71
2021/08/01 04:27:17;;;;;;;6.45;3.78;;;;;;;;;;5055976;28;20069;-71
2021/08/01 04:29:43;;;;;;;8.98;4.20;;;;;;;;;;5073439;28;20035;-71
2021/08/01 04:32:09;;;;;;;7.30;4.25;;;;;;;;;;5055659;28;20032;-71
2021/08/01 04:34:36;;;;;;;6.82;4.30;;;;;;;;;;5073753;28;20100;-71
2021/08/01 04:37:02;;;;;;;6.53;4.00;;;;;;;;;;5055598;28;20068;-71
2021/08/01 04:39:28;;;;;;;6.00;3.83;;;;;;;;;;5073689;28;20020;-71
2021/08/01 04:41:54;;;;;;;8.63;4.65;;;;;;;;;;5073574;28;20025;-71
2021/08/01 04:44:20;;;;;;;8.00;3.92;;;;;;;;;;5073409;28;20020;-71
2021/08/01 04:46:46;;;;;;;8.40;4.53;;;;;;;;;;5055381;28;20366;-71
2021/08/01 04:49:12;;;;;;;9.93;4.95;;;;;;;;;;5073136;28;20016;-71
2021/08/01 04:51:38;;;;;;;8.75;4.57;;;;;;;;;;5073129;28;20028;-71
2021/08/01 04:54:05;;;;;;;9.23;5.05;;;;;;;;;;5073306;28;20064;-71
2021/08/01 04:56:31;;;;;;;7.40;4.13;;;;;;;;;;5055270;28;20028;-71
2021/08/01 04:58:57;;;;;;;6.43;3.90;;;;;;;;;;5073122;28;20028;-71
2021/08/01 05:01:23;;;;;;;5.90;3.65;;;;;;;;;;5073208;28;20032;-71
2021/08/01 05:03:49;;;;;;;7.53;4.10;;;;;;;;;;5073113;28;20025;-71
2021/08/01 05:06:15;;;;;;;10.82;4.22;;;;;;;;;;5073027;28;20031;-72
2021/08/01 05:08:41;;;;;;;7.18;4.20;;;;;;;;;;5072975;28;20023;-71
2021/08/01 05:11:07;;;;;;;10.95;4.18;;;;;;;;;;5055023;28;20020;-71
2021/08/01 05:13:34;;;;;;;6.18;3.53;;;;;;;;;;5072859;28;20226;-72
2021/08/01 05:16:00;;;;;;;7.25;3.85;;;;;;;;;;5072925;28;20033;-73
2021/08/01 05:18:26;;;;;;;9.52;3.80;;;;;;;;;;5072642;28;20111;-72
2021/08/01 05:20:52;;;;;;;7.05;3.97;;;;;;;;;;5054566;28;20059;-71
2021/08/01 05:23:18;;;;;;;8.63;4.45;;;;;;;;;;5072623;28;20048;-72
2021/08/01 05:25:44;;;;;;;8.52;4.30;;;;;;;;;;5072685;28;20032;-72
2021/08/01 05:28:10;;;;;;;9.73;4.32;;;;;;;;;;5072681;28;20016;-72
2021/08/01 05:30:36;;;;;;;7.13;4.07;;;;;;;;;;5072711;28;20099;-71
2021/08/01 05:33:06;;;;;;;5.70;3.75;;;;;;;;;;5054455;28;20029;-72
2021/08/01 05:35:33;;;;;;;8.75;4.13;;;;;;;;;;5054397;28;20059;-71
2021/08/01 05:37:59;;;;;;;7.30;4.15;;;;;;;;;;5072262;28;20024;-71
2021/08/01 05:40:25;;;;;;;8.05;4.10;;;;;;;;;;5072333;28;20012;-71
2021/08/01 05:42:51;;;;;;;5.65;3.60;;;;;;;;;;5072175;28;20024;-72
2021/08/01 05:45:17;;;;;;;9.48;4.20;;;;;;;;;;5072519;28;20024;-72
2021/08/01 05:47:43;;;;;;;7.55;3.75;;;;;;;;;;5072208;28;20016;-71
2021/08/01 05:50:09;;;;;;;6.63;4.03;;;;;;;;;;5054347;28;20051;-72
2021/08/01 05:52:36;;;;;;;6.13;4.03;;;;;;;;;;5072145;28;20031;-72
2021/08/01 05:55:02;;;;;;;6.95;4.20;;;;;;;;;;5068162;28;20024;-72
2021/08/01 05:57:28;;;;;;;6.40;4.03;;;;;;;;;;5059142;28;20032;-72
2021/08/01 05:59:54;;;;;;;6.18;3.95;;;;;;;;;;5054347;28;20112;-72
2021/08/01 06:02:20;;;;;;;7.88;3.75;;;;;;;;;;5054372;28;20078;-71
2021/08/01 06:04:46;;;;;;;7.15;4.13;;;;;;;;;;5072331;28;20376;-72
2021/08/01 06:07:12;;;;;;;6.13;3.80;;;;;;;;;;5053791;28;20491;-72
2021/08/01 06:09:40;;;;;;;7.85;4.05;;;;;;;;;;5071757;28;20532;-71
2021/08/01 06:12:06;;;;;;;7.53;3.97;;;;;;;;;;5071521;28;20483;-71
2021/08/01 06:14:32;;;;;;;6.18;3.75;;;;;;;;;;5072079;28;20036;-71
2021/08/01 06:16:58;;;;;;;7.13;3.72;;;;;;;;;;5071712;28;20028;-72
2021/08/01 06:19:24;;;;;;;7.10;3.90;;;;;;;;;;5071772;28;20032;-73
2021/08/01 06:21:50;;;;;;;7.68;3.97;;;;;;;;;;5072000;28;20057;-71
2021/08/01 06:24:16;;;;;;;36.25;4.60;;;;;;;;;;5071955;28;20371;-71
2021/08/01 06:26:42;;;;;;;9.18;3.90;;;;;;;;;;5053902;28;20025;-71
2021/08/01 06:29:09;;;;;;;8.52;3.85;;;;;;;;;;5053794;28;20021;-72
2021/08/01 06:31:35;;;;;;;9.30;3.83;;;;;;;;;;5053964;28;20025;-72
2021/08/01 06:34:01;;;;;;;9.25;4.15;;;;;;;;;;5072045;28;20125;-71
2021/08/01 06:36:27;;;;;;;7.13;3.95;;;;;;;;;;5071864;28;20043;-71
2021/08/01 06:38:53;;;;;;;7.35;4.13;;;;;;;;;;5047807;28;20021;-71
2021/08/01 06:41:19;;;;;;;7.53;4.10;;;;;;;;;;5049970;28;20056;-71
2021/08/01 06:43:45;;;;;;;10.88;3.88;;;;;;;;;;5044337;28;20021;-71
2021/08/01 06:46:11;;;;;;;11.00;4.30;;;;;;;;;;5031732;28;20392;-71
2021/08/01 06:48:41;;;;;;;8.55;3.70;;;;;;;;;;5034952;28;20128;-71
2021/08/01 06:51:07;;;;;;;6.90;4.00;;;;;;;;;;5036059;28;20104;-71
2021/08/01 06:53:33;;;;;;;6.30;4.00;;;;;;;;;;5035076;28;20052;-71
2021/08/01 06:55:59;;;;;;;7.95;3.90;;;;;;;;;;5036059;28;20025;-71
2021/08/01 06:58:25;;;;;;;8.23;3.92;;;;;;;;;;5035963;28;20048;-72
2021/08/01 07:00:52;;;;;;;10.52;3.78;;;;;;;;;;5035096;28;20013;-71
2021/08/01 07:03:19;;;;;;;6.88;3.35;;;;;;;;;;5035215;28;20025;-72
2021/08/01 07:05:45;;;;;;;8.32;3.65;;;;;;;;;;5033862;28;20040;-72
2021/08/01 07:08:11;;;;;;;6.15;3.60;;;;;;;;;;5035112;28;20092;-72
2021/08/01 07:10:38;;;;;;;15.15;4.63;;;;;;;;;;5035399;28;20026;-71
2021/08/01 07:13:07;;;;;;;5.43;3.40;;;;;;;;;;5033522;28;20098;-72
2021/08/01 07:15:34;;;;;;;7.60;3.17;;;;;;;;;;5034888;28;20095;-71
2021/08/01 07:18:01;;;;;;;7.22;3.58;;;;;;;;;;5035017;28;20101;-71
2021/08/01 07:20:27;;;;;;;6.18;3.38;;;;;;;;;;5033614;28;20021;-71
2021/08/01 07:22:54;;;;;;;7.50;3.50;;;;;;;;;;5034898;28;20052;-72
2021/08/01 07:25:20;;;;;;;6.10;3.38;;;;;;;;;;5033631;28;20026;-71
2021/08/01 07:27:46;;;;;;;6.53;3.42;;;;;;;;;;5033644;28;20025;-72
2021/08/01 07:30:13;;;;;;;9.15;3.65;;;;;;;;;;5036125;28;20022;-72
2021/08/01 07:32:39;;;;;;;5.70;3.00;;;;;;;;;;5054685;28;20068;-71
2021/08/01 07:35:05;;;;;;;7.40;3.20;;;;;;;;;;5054510;28;20025;-72
2021/08/01 07:37:32;;;;;;;6.95;3.65;;;;;;;;;;5054815;28;20356;-71
2021/08/01 07:39:58;;;;;;;12.18;3.40;;;;;;;;;;5053462;28;20025;-72
2021/08/01 07:42:24;;;;;;;8.35;3.38;;;;;;;;;;5054534;28;20033;-72
2021/08/01 07:44:52;;;;;;;14.13;4.40;;;;;;;;;;5054604;28;20032;-71
2021/08/01 07:47:20;;;;;;;9.65;3.70;;;;;;;;;;5052986;28;20025;-71
2021/08/01 07:49:46;;;;;;;24.23;5.38;;;;;;;;;;5054228;28;20048;-71
2021/08/01 07:52:13;;;;;;;22.35;5.32;;;;;;;;;;5037142;28;20051;-72
2021/08/01 07:54:39;;;;;;;14.02;5.10;;;;;;;;;;5036074;28;20098;-71
2021/08/01 07:57:06;;;;;;;12.50;4.78;;;;;;;;;;5049487;28;20045;-70
2021/08/01 07:59:32;;;;;;;11.70;5.00;;;;;;;;;;5033253;28;20045;-71
2021/08/01 08:01:58;;;;;;;10.90;5.20;;;;;;;;;;5032909;28;20014;-71
2021/08/01 08:04:24;;;;;;;11.13;4.68;;;;;;;;;;5034106;28;20025;-71
2021/08/01 08:06:51;;;;;;;8.48;4.55;;;;;;;;;;5034131;28;20420;-71
2021/08/01 08:09:18;;;;;;;8.73;4.28;;;;;;;;;;5038288;28;20039;-71
2021/08/01 08:11:44;;;;;;;8.13;4.45;;;;;;;;;;5052249;28;20029;-71
2021/08/01 08:14:10;;;;;;;11.23;4.78;;;;;;;;;;5052439;28;20028;-71
2021/08/01 08:16:36;;;;;;;9.13;4.90;;;;;;;;;;5052123;28;20128;-71
2021/08/01 08:19:02;;;;;;;7.90;4.30;;;;;;;;;;5053470;28;20599;-71
2021/08/01 08:21:28;;;;;;;9.75;4.82;;;;;;;;;;5053563;28;20029;-71
2021/08/01 08:23:54;;;;;;;6.75;4.50;;;;;;;;;;5053706;28;20017;-71
2021/08/01 08:26:20;;;;;;;7.55;4.85;;;;;;;;;;5053719;28;20074;-71
2021/08/01 08:28:46;;;;;;;9.05;5.43;;;;;;;;;;5052135;28;20066;-71
2021/08/01 08:31:12;;;;;;;9.75;5.47;;;;;;;;;;5053300;28;20029;-71
2021/08/01 08:33:38;;;;;;;8.60;5.25;;;;;;;;;;5053357;28;20032;-71
2021/08/01 08:36:04;;;;;;;8.18;5.32;;;;;;;;;;5053431;28;20090;-71
2021/08/01 08:38:31;;;;;;;8.30;5.20;;;;;;;;;;5053214;28;20022;-71
2021/08/01 08:40:57;;;;;;;8.32;5.38;;;;;;;;;;5053126;28;20025;-71
2021/08/01 08:43:23;;;;;;;12.90;5.90;;;;;;;;;;5053042;28;20349;-70
2021/08/01 08:45:49;;;;;;;8.77;5.47;;;;;;;;;;5047210;28;20100;-70
2021/08/01 08:48:16;;;;;;;7.22;5.20;;;;;;;;;;5033603;28;20037;-71
2021/08/01 08:50:48;;;;;;;10.27;5.00;;;;;;;;;;5032924;28;20024;-71
2021/08/01 08:53:15;;;;;;;8.60;5.45;;;;;;;;;;5031389;28;20411;-71
2021/08/01 08:55:41;;;;;;;12.35;5.03;;;;;;;;;;5051755;28;20025;-70
2021/08/01 08:58:08;;;;;;;13.48;5.53;;;;;;;;;;5052600;28;20043;-70
2021/08/01 09:00:34;;;;;;;11.32;5.18;;;;;;;;;;5051862;28;20051;-71
2021/08/01 09:03:00;;;;;;;8.68;5.57;;;;;;;;;;5053080;28;20029;-70
2021/08/01 09:05:27;;;;;;;8.23;5.38;;;;;;;;;;5053462;28;20116;-70
2021/08/01 09:07:53;;;;;;;9.63;5.80;;;;;;;;;;5054930;28;20027;-70
2021/08/01 09:10:19;;;;;;;10.45;4.82;;;;;;;;;;5051412;28;20090;-70
2021/08/01 09:12:46;;;;;;;17.10;5.90;;;;;;;;;;5052298;28;20041;-71
2021/08/01 09:15:12;;;;;;;11.05;6.07;;;;;;;;;;5052159;28;20103;-70
2021/08/01 09:17:39;;;;;;;9.38;5.35;;;;;;;;;;5034569;28;20609;-71
2021/08/01 09:20:12;;;;;;;16.35;6.78;;;;;;;;;;5052502;28;20487;-70
2021/08/01 09:22:38;;;;;;;14.73;6.07;;;;;;;;;;5052769;28;20168;-70
2021/08/01 09:25:15;;;;;;;11.75;6.45;;;;;;;;;;5052484;28;20028;-70
2021/08/01 09:27:41;;;;;;;11.90;5.90;;;;;;;;;;5052197;28;20039;-71
2021/08/01 09:30:07;;;;;;;11.00;5.95;;;;;;;;;;5052454;28;20086;-71
2021/08/01 09:32:45;;;;;;;15.75;5.88;;;;;;;;;;5052445;28;20087;-71
2021/08/01 09:35:21;;;;;;;10.23;6.28;;;;;;;;;;5052571;28;20025;-71
2021/08/01 09:38:07;;;;;;;14.15;5.10;;;;;;;;;;5052480;28;20029;-71
2021/08/01 09:40:34;;;;;;;17.20;6.03;;;;;;;;;;5051244;28;20025;-70
2021/08/01 09:43:13;;;;;;;21.10;6.22;;;;;;;;;;5053233;28;20028;-70
2021/08/01 09:45:39;;;;;;;18.08;5.95;;;;;;;;;;5054168;28;20020;-69
2021/08/01 09:48:15;;;;;;;14.52;6.28;;;;;;;;;;5053951;28;20128;-71
2021/08/01 09:50:58;;;;;;;19.42;6.60;;;;;;;;;;5063222;28;20437;-70
2021/08/01 09:53:24;;;;;;;12.63;5.82;;;;;;;;;;5052063;28;20023;-71
2021/08/01 09:56:09;;;;;;;9.32;6.05;;;;;;;;;;5052209;28;20032;-70
2021/08/01 09:58:36;;;;;;;12.55;5.72;;;;;;;;;;5052193;28;20025;-71
2021/08/01 10:01:02;;;;;;;11.23;5.55;;;;;;;;;;5034462;28;20017;-70
2021/08/01 10:03:57;;;;;;;8.35;5.10;;;;;;;;;;5052173;28;20051;-71
2021/08/01 10:06:24;;;;;;;10.80;5.63;;;;;;;;;;5038942;28;20098;-71
2021/08/01 10:08:51;;;;;;;9.48;5.20;;;;;;;;;;5034063;28;20024;-71
2021/08/01 10:11:22;;;;;;;9.77;5.63;;;;;;;;;;5051970;28;20025;-70
2021/08/01 10:13:52;;;;;;;10.57;5.13;;;;;;;;;;5051571;28;20043;-70
2021/08/01 10:16:18;;;;;;;10.57;5.63;;;;;;;;;;5033979;28;20033;-71
2021/08/01 10:18:45;;;;;;;8.80;5.82;;;;;;;;;;5051803;28;20069;-71
2021/08/01 10:21:24;;;;;;;11.35;5.75;;;;;;;;;;5051069;28;20026;-71
2021/08/01 10:23:58;;;;;;;7.75;5.30;;;;;;;;;;5051921;28;20025;-70
2021/08/01 10:26:26;;;;;;;8.10;5.32;;;;;;;;;;5034018;28;20476;-70
2021/08/01 10:28:54;;;;;;;8.88;5.22;;;;;;;;;;5051928;28;20100;-70
2021/08/01 10:31:25;;;;;;;7.20;5.10;;;;;;;;;;5034000;28;20013;-71
2021/08/01 10:33:54;;;;;;;11.85;5.82;;;;;;;;;;5051926;28;20035;-71
2021/08/01 10:36:28;;;;;;;8.27;4.95;;;;;;;;;;5051749;28;20040;-70
2021/08/01 10:38:59;;;;;;;10.18;5.75;;;;;;;;;;5033705;28;20025;-70
2021/08/01 10:41:28;;;;;;;9.80;5.37;;;;;;;;;;5052265;28;20112;-71
2021/08/01 10:43:55;;;;;;;9.40;5.50;;;;;;;;;;5051687;28;20286;-70
2021/08/01 10:46:21;;;;;;;9.77;5.93;;;;;;;;;;5051629;28;20480;-70
2021/08/01 10:48:47;;;;;;;9.25;5.72;;;;;;;;;;5051535;28;20025;-71
2021/08/01 10:51:14;;;;;;;7.70;5.35;;;;;;;;;;5051800;28;20025;-70
2021/08/01 10:53:41;;;;;;;8.00;5.45;;;;;;;;;;5033733;28;20036;-70
2021/08/01 10:56:07;;;;;;;10.98;5.38;;;;;;;;;;5051493;28;20047;-71
2021/08/01 10:58:40;;;;;;;12.05;6.15;;;;;;;;;;5033617;28;20052;-70
2021/08/01 11:01:09;;;;;;;11.27;6.03;;;;;;;;;;5033630;28;20021;-70
2021/08/01 11:03:39;;;;;;;8.38;5.40;;;;;;;;;;5051481;28;20021;-70
2021/08/01 11:06:07;;;;;;;8.40;5.50;;;;;;;;;;5051483;28;20067;-70
2021/08/01 11:08:35;;;;;;;8.30;5.80;;;;;;;;;;5051368;28;20021;-70
2021/08/01 11:11:10;;;;;;;8.30;6.10;;;;;;;;;;5051811;28;20345;-70
2021/08/01 11:13:54;;;;;;;8.15;5.38;;;;;;;;;;5051189;28;20049;-70
2021/08/01 11:16:32;;;;;;;9.15;6.25;;;;;;;;;;5033404;28;20021;-71
2021/08/01 11:19:00;;;;;;;8.52;5.72;;;;;;;;;;5051440;28;20083;-70
2021/08/01 11:21:38;;;;;;;7.85;5.60;;;;;;;;;;5051074;28;20076;-70
2021/08/01 11:24:06;;;;;;;9.63;5.80;;;;;;;;;;5051391;28;20064;-70
2021/08/01 11:26:32;;;;;;;8.48;5.43;;;;;;;;;;5055138;28;20375;-70
2021/08/01 11:29:11;;;;;;;9.60;6.13;;;;;;;;;;5071215;28;20161;-70
2021/08/01 11:31:57;;;;;;;8.32;6.00;;;;;;;;;;5071448;28;20021;-70
2021/08/01 11:34:23;;;;;;;7.63;5.28;;;;;;;;;;5074631;28;20107;-71
2021/08/01 11:36:50;;;;;;;9.18;5.68;;;;;;;;;;5074773;28;20404;-70
2021/08/01 11:39:17;;;;;;;8.85;5.68;;;;;;;;;;5074809;28;20036;-70
2021/08/01 11:41:43;;;;;;;10.20;5.75;;;;;;;;;;5074739;28;20103;-71
2021/08/01 11:44:14;;;;;;;7.68;5.20;;;;;;;;;;5074832;28;20142;-71
2021/08/01 11:46:55;;;;;;;8.73;6.00;;;;;;;;;;5074679;28;20372;-70
2021/08/01 11:49:28;;;;;;;9.55;5.65;;;;;;;;;;5056606;28;20055;-70
2021/08/01 11:51:55;;;;;;;10.80;6.03;;;;;;;;;;5074636;28;20533;-71
2021/08/01 11:54:25;;;;;;;9.77;6.13;;;;;;;;;;5074858;28;20016;-70
2021/08/01 11:56:54;;;;;;;9.15;5.53;;;;;;;;;;5056598;28;20167;-70
2021/08/01 11:59:20;;;;;;;8.32;5.80;;;;;;;;;;5074312;28;20099;-71
2021/08/01 12:01:46;;;;;;;7.20;5.32;;;;;;;;;;5056211;28;20533;-70
2021/08/01 12:04:12;;;;;;;8.65;6.05;;;;;;;;;;5074472;28;20020;-70
2021/08/01 12:06:39;;;;;;;9.52;6.35;;;;;;;;;;5074434;28;20605;-70
2021/08/01 12:09:34;;;;;;;9.73;5.95;;;;;;;;;;5074136;28;20029;-71
2021/08/01 12:12:01;;;;;;;7.80;5.90;;;;;;;;;;5042849;28;20123;-71
2021/08/01 12:14:27;;;;;;;8.18;5.53;;;;;;;;;;5074467;28;20021;-70
2021/08/01 12:16:54;;;;;;;8.85;6.28;;;;;;;;;;5074096;28;20028;-71
2021/08/01 12:19:22;;;;;;;8.98;5.60;;;;;;;;;;5056096;28;20020;-71
2021/08/01 12:21:49;;;;;;;8.38;5.80;;;;;;;;;;5056006;28;20028;-70
2021/08/01 12:24:33;;;;;;;9.82;5.68;;;;;;;;;;5073973;28;20450;-70
2021/08/01 12:26:59;;;;;;;9.57;5.82;;;;;;;;;;5056106;28;20025;-71
2021/08/01 12:29:29;;;;;;;8.65;5.45;;;;;;;;;;5055954;28;20047;-70
2021/08/01 12:31:56;;;;;;;10.35;6.35;;;;;;;;;;5073810;28;20032;-70
2021/08/01 12:34:22;;;;;;;10.52;5.93;;;;;;;;;;5073824;28;20025;-70
2021/08/01 12:36:49;;;;;;;10.13;5.70;;;;;;;;;;5073684;28;20465;-70
2021/08/01 12:39:18;;;;;;;8.63;5.90;;;;;;;;;;5073916;28;20048;-70
2021/08/01 12:42:00;;;;;;;9.25;6.15;;;;;;;;;;5073712;28;20082;-70
2021/08/01 12:44:26;;;;;;;10.70;6.60;;;;;;;;;;5072955;28;20025;-70
2021/08/01 12:47:04;;;;;;;9.02;6.32;;;;;;;;;;5073562;28;20300;-70
2021/08/01 12:49:30;;;;;;;10.73;6.50;;;;;;;;;;5073513;28;20027;-70
2021/08/01 12:51:56;;;;;;;8.43;6.40;;;;;;;;;;5055711;28;20415;-70
2021/08/01 12:54:22;;;;;;;10.98;7.15;;;;;;;;;;5073451;28;20383;-70
2021/08/01 12:57:07;;;;;;;10.65;6.57;;;;;;;;;;5073105;28;20035;-70
2021/08/01 12:59:37;;;;;;;10.02;6.35;;;;;;;;;;5055307;28;20494;-71
2021/08/01 13:02:04;;;;;;;10.23;6.65;;;;;;;;;;5073027;28;20456;-70
2021/08/01 13:04:41;;;;;;;15.45;6.95;;;;;;;;;;5073362;28;20040;-70
2021/08/01 13:07:07;;;;;;;8.35;5.95;;;;;;;;;;5073280;28;20042;-70
2021/08/01 13:09:34;;;;;;;8.85;5.97;;;;;;;;;;5073273;28;20024;-70
2021/08/01 13:12:13;;;;;;;11.52;6.18;;;;;;;;;;5072967;28;20020;-70
2021/08/01 13:14:43;;;;;;;9.05;6.05;;;;;;;;;;5073366;28;20031;-71
2021/08/01 13:17:09;;;;;;;11.57;6.95;;;;;;;;;;5073091;28;20035;-70
2021/08/01 13:19:37;;;;;;;8.15;6.05;;;;;;;;;;5072849;28;20028;-70
2021/08/01 13:22:05;;;;;;;9.82;6.65;;;;;;;;;;5072664;28;20009;-71
2021/08/01 13:24:35;;;;;;;11.45;6.35;;;;;;;;;;5072889;28;20541;-70
2021/08/01 13:27:02;;;;;;;9.95;6.07;;;;;;;;;;5067353;28;20018;-70
2021/08/01 13:29:29;;;;;;;8.63;5.63;;;;;;;;;;5058524;28;20044;-70
2021/08/01 13:31:55;;;;;;;10.85;7.38;;;;;;;;;;5039924;28;20025;-70
2021/08/01 13:34:22;;;;;;;10.10;6.72;;;;;;;;;;5059316;28;20446;-70
2021/08/01 13:36:48;;;;;;;8.35;6.75;;;;;;;;;;5059906;28;20041;-70
2021/08/01 13:39:19;;;;;;;13.05;6.53;;;;;;;;;;5059393;28;20048;-70
2021/08/01 13:41:57;;;;;;;9.82;6.43;;;;;;;;;;5058776;28;20029;-70
2021/08/01 13:44:24;;;;;;;9.07;5.65;;;;;;;;;;5059572;28;20029;-71
2021/08/01 13:47:09;;;;;;;6.93;5.45;;;;;;;;;;5059062;28;20017;-70
2021/08/01 13:49:35;;;;;;;8.35;5.47;;;;;;;;;;5059095;28;20072;-70
2021/08/01 13:52:01;;;;;;;7.95;5.15;;;;;;;;;;5060066;28;20033;-70
2021/08/01 13:54:27;;;;;;;8.27;5.40;;;;;;;;;;5059452;28;20483;-70
2021/08/01 13:56:53;;;;;;;8.15;4.80;;;;;;;;;;5058175;28;20036;-70
2021/08/01 13:59:19;;;;;;;7.00;4.95;;;;;;;;;;5043306;28;20029;-70
2021/08/01 14:01:45;;;;;;;9.90;5.38;;;;;;;;;;5057043;28;20077;-71
2021/08/01 14:04:11;;;;;;;13.27;5.30;;;;;;;;;;5058468;28;20127;-70
2021/08/01 14:06:38;;;;;;;10.52;5.05;;;;;;;;;;5060991;28;20079;-70
2021/08/01 14:09:04;;;;;;;9.48;5.28;;;;;;;;;;5059339;28;20087;-70
2021/08/01 14:11:30;;;;;;;10.65;5.78;;;;;;;;;;5060012;28;20036;-70
2021/08/01 14:13:57;;;;;;;9.30;4.97;;;;;;;;;;5058648;28;20040;-71
2021/08/01 14:16:23;;;;;;;6.63;4.78;;;;;;;;;;5059685;28;20032;-70
2021/08/01 14:18:49;;;;;;;9.75;5.43;;;;;;;;;;5058628;28;20066;-71
2021/08/01 14:21:15;;;;;;;8.52;4.95;;;;;;;;;;5059099;28;20032;-70
2021/08/01 14:23:41;;;;;;;7.47;4.75;;;;;;;;;;5060280;28;20024;-71
2021/08/01 14:26:07;;;;;;;8.77;5.10;;;;;;;;;;5041199;28;20025;-70
2021/08/01 14:28:35;;;;;;;12.43;4.90;;;;;;;;;;5059147;28;20047;-70
2021/08/01 14:31:02;;;;;;;7.75;4.68;;;;;;;;;;5058566;28;20040;-71
2021/08/01 14:33:29;;;;;;;10.85;5.10;;;;;;;;;;5052598;28;20408;-71
2021/08/01 14:35:56;;;;;;;11.13;5.60;;;;;;;;;;5058229;28;20582;-70
2021/08/01 14:38:25;;;;;;;9.60;5.00;;;;;;;;;;5044032;28;20033;-71
2021/08/01 14:40:52;;;;;;;7.85;5.22;;;;;;;;;;5043410;28;20028;-70
2021/08/01 14:43:19;;;;;;;7.80;5.60;;;;;;;;;;5057817;28;20032;-71